sensor_id;sensor_type;location;lat;lon;timestamp;temperature;humidity
4548;DHT22;2286;51.570;7.090;2022-07-24T00:01:03;17.30;1.00
4548;DHT22;2286;51.570;7.090;2022-07-24T00:03:30;17.30;1.00
4548;DHT22;2286;51.570;7.090;2022-07-24T00:05:57;17.30;1.00
4548;DHT22;2286;51.570;7.090;2022-07-24T00:08:24;17.30;1.00
4548;DHT22;2286;51.570;7.090;2022-07-24T00:10:51;17.30;1.00
4548;DHT22;2286;51.570;7.090;2022-07-24T00:13:18;17.20;1.00
4548;DHT22;2286;51.570;7.090;2022-07-24T00:15:46;17.20;1.00
4548;DHT22;2286;51.570;7.090;2022-07-24T00:18:13;17.10;1.00
4548;DHT22;2286;51.570;7.090;2022-07-24T00:20:40;17.10;1.00
4548;DHT22;2286;51.570;7.090;2022-07-24T00:23:07;17.10;96.30
4548;DHT22;2286;51.570;7.090;2022-07-24T00:25:34;17.00;99.90
4548;DHT22;2286;51.570;7.090;2022-07-24T00:28:01;17.00;99.90
4548;DHT22;2286;51.570;7.090;2022-07-24T00:30:28;17.00;99.90
4548;DHT22;2286;51.570;7.090;2022-07-24T00:32:56;17.00;99.90
4548;DHT22;2286;51.570;7.090;2022-07-24T00:35:24;17.00;99.90
4548;DHT22;2286;51.570;7.090;2022-07-24T00:37:51;17.00;99.90
4548;DHT22;2286;51.570;7.090;2022-07-24T00:40:19;16.90;99.90
4548;DHT22;2286;51.570;7.090;2022-07-24T00:42:46;16.80;99.90
4548;DHT22;2286;51.570;7.090;2022-07-24T00:45:13;16.80;99.90
4548;DHT22;2286;51.570;7.090;2022-07-24T00:47:40;16.70;99.90
4548;DHT22;2286;51.570;7.090;2022-07-24T00:50:09;16.70;99.90
4548;DHT22;2286;51.570;7.090;2022-07-24T00:52:36;16.70;99.90
4548;DHT22;2286;51.570;7.090;2022-07-24T00:55:04;16.70;99.90
4548;DHT22;2286;51.570;7.090;2022-07-24T00:57:31;16.60;99.90
4548;DHT22;2286;51.570;7.090;2022-07-24T00:59:58;16.60;99.90
4548;DHT22;2286;51.570;7.090;2022-07-24T01:02:25;16.60;99.90
4548;DHT22;2286;51.570;7.090;2022-07-24T01:04:52;16.60;99.90
4548;DHT22;2286;51.570;7.090;2022-07-24T01:07:20;16.50;99.90
4548;DHT22;2286;51.570;7.090;2022-07-24T01:09:47;16.60;99.90
4548;DHT22;2286;51.570;7.090;2022-07-24T01:12:15;16.50;99.90
4548;DHT22;2286;51.570;7.090;2022-07-24T01:14:42;16.50;99.90
4548;DHT22;2286;51.570;7.090;2022-07-24T01:17:10;16.50;99.90
4548;DHT22;2286;51.570;7.090;2022-07-24T01:19:37;16.50;99.90
4548;DHT22;2286;51.570;7.090;2022-07-24T01:22:05;16.40;99.90
4548;DHT22;2286;51.570;7.090;2022-07-24T01:24:32;16.40;99.90
4548;DHT22;2286;51.570;7.090;2022-07-24T01:26:59;16.40;99.90
4548;DHT22;2286;51.570;7.090;2022-07-24T01:29:26;16.30;99.90
4548;DHT22;2286;51.570;7.090;2022-07-24T01:31:53;16.30;99.90
4548;DHT22;2286;51.570;7.090;2022-07-24T01:34:20;16.30;99.90
4548;DHT22;2286;51.570;7.090;2022-07-24T01:36:47;16.20;99.90
4548;DHT22;2286;51.570;7.090;2022-07-24T01:39:15;16.20;99.90
4548;DHT22;2286;51.570;7.090;2022-07-24T01:41:42;16.20;99.90
4548;DHT22;2286;51.570;7.090;2022-07-24T01:44:09;16.20;99.90
4548;DHT22;2286;51.570;7.090;2022-07-24T01:46:36;16.20;99.90
4548;DHT22;2286;51.570;7.090;2022-07-24T01:49:03;16.20;99.90
4548;DHT22;2286;51.570;7.090;2022-07-24T01:51:31;16.10;99.90
4548;DHT22;2286;51.570;7.090;2022-07-24T01:53:58;16.10;99.90
4548;DHT22;2286;51.570;7.090;2022-07-24T01:56:26;16.10;99.90
4548;DHT22;2286;51.570;7.090;2022-07-24T01:58:53;16.10;99.90
4548;DHT22;2286;51.570;7.090;2022-07-24T02:01:20;16.00;99.90
4548;DHT22;2286;51.570;7.090;2022-07-24T02:03:47;16.00;99.90
4548;DHT22;2286;51.570;7.090;2022-07-24T02:06:14;16.00;99.90
4548;DHT22;2286;51.570;7.090;2022-07-24T02:08:41;16.00;99.90
4548;DHT22;2286;51.570;7.090;2022-07-24T02:11:08;15.90;99.90
4548;DHT22;2286;51.570;7.090;2022-07-24T02:13:36;16.00;99.90
4548;DHT22;2286;51.570;7.090;2022-07-24T02:16:04;15.90;99.90
4548;DHT22;2286;51.570;7.090;2022-07-24T02:18:31;15.90;99.90
4548;DHT22;2286;51.570;7.090;2022-07-24T02:20:58;15.90;99.90
4548;DHT22;2286;51.570;7.090;2022-07-24T02:23:25;15.90;99.90
4548;DHT22;2286;51.570;7.090;2022-07-24T02:25:52;15.80;99.90
4548;DHT22;2286;51.570;7.090;2022-07-24T02:28:19;15.80;99.90
4548;DHT22;2286;51.570;7.090;2022-07-24T02:30:47;15.80;99.90
4548;DHT22;2286;51.570;7.090;2022-07-24T02:33:14;15.80;99.90
4548;DHT22;2286;51.570;7.090;2022-07-24T02:35:41;15.70;99.90
4548;DHT22;2286;51.570;7.090;2022-07-24T02:38:08;15.70;99.90
4548;DHT22;2286;51.570;7.090;2022-07-24T02:40:35;15.70;99.90
4548;DHT22;2286;51.570;7.090;2022-07-24T02:43:02;15.70;99.90
4548;DHT22;2286;51.570;7.090;2022-07-24T02:45:29;15.70;99.90
4548;DHT22;2286;51.570;7.090;2022-07-24T02:47:58;15.60;99.90
4548;DHT22;2286;51.570;7.090;2022-07-24T02:50:30;15.60;99.90
4548;DHT22;2286;51.570;7.090;2022-07-24T02:52:58;15.70;99.90
4548;DHT22;2286;51.570;7.090;2022-07-24T02:55:24;15.70;99.90
4548;DHT22;2286;51.570;7.090;2022-07-24T02:57:53;15.60;99.90
4548;DHT22;2286;51.570;7.090;2022-07-24T03:00:20;15.60;99.90
4548;DHT22;2286;51.570;7.090;2022-07-24T03:02:47;15.60;99.90
4548;DHT22;2286;51.570;7.090;2022-07-24T03:05:16;15.60;99.90
4548;DHT22;2286;51.570;7.090;2022-07-24T03:07:43;15.60;99.90
4548;DHT22;2286;51.570;7.090;2022-07-24T03:10:11;15.60;99.90
4548;DHT22;2286;51.570;7.090;2022-07-24T03:12:39;15.60;99.90
4548;DHT22;2286;51.570;7.090;2022-07-24T03:15:06;15.60;99.90
4548;DHT22;2286;51.570;7.090;2022-07-24T03:17:33;15.50;99.90
4548;DHT22;2286;51.570;7.090;2022-07-24T03:20:00;15.60;99.90
4548;DHT22;2286;51.570;7.090;2022-07-24T03:22:29;15.50;99.90
4548;DHT22;2286;51.570;7.090;2022-07-24T03:24:56;15.50;99.90
4548;DHT22;2286;51.570;7.090;2022-07-24T03:27:23;15.50;99.90
4548;DHT22;2286;51.570;7.090;2022-07-24T03:29:49;15.50;99.90
4548;DHT22;2286;51.570;7.090;2022-07-24T03:32:16;15.40;99.90
4548;DHT22;2286;51.570;7.090;2022-07-24T03:34:43;15.40;99.90
4548;DHT22;2286;51.570;7.090;2022-07-24T03:37:10;15.40;99.90
4548;DHT22;2286;51.570;7.090;2022-07-24T03:39:38;15.40;99.90
4548;DHT22;2286;51.570;7.090;2022-07-24T03:42:05;15.40;99.90
4548;DHT22;2286;51.570;7.090;2022-07-24T03:44:32;15.40;99.90
4548;DHT22;2286;51.570;7.090;2022-07-24T03:46:59;15.50;99.90
4548;DHT22;2286;51.570;7.090;2022-07-24T03:49:26;15.50;99.90
4548;DHT22;2286;51.570;7.090;2022-07-24T03:51:53;15.50;99.90
4548;DHT22;2286;51.570;7.090;2022-07-24T03:54:19;15.50;99.90
4548;DHT22;2286;51.570;7.090;2022-07-24T03:56:48;15.60;99.90
4548;DHT22;2286;51.570;7.090;2022-07-24T03:59:15;15.60;99.90
4548;DHT22;2286;51.570;7.090;2022-07-24T04:01:42;15.50;99.90
4548;DHT22;2286;51.570;7.090;2022-07-24T04:04:09;15.60;99.90
4548;DHT22;2286;51.570;7.090;2022-07-24T04:06:36;15.70;99.90
4548;DHT22;2286;51.570;7.090;2022-07-24T04:09:04;15.70;99.90
4548;DHT22;2286;51.570;7.090;2022-07-24T04:11:31;15.70;99.90
4548;DHT22;2286;51.570;7.090;2022-07-24T04:13:59;15.70;99.90
4548;DHT22;2286;51.570;7.090;2022-07-24T04:16:26;15.70;99.90
4548;DHT22;2286;51.570;7.090;2022-07-24T04:18:53;15.70;99.90
4548;DHT22;2286;51.570;7.090;2022-07-24T04:21:20;15.80;99.90
4548;DHT22;2286;51.570;7.090;2022-07-24T04:23:47;15.80;99.90
4548;DHT22;2286;51.570;7.090;2022-07-24T04:26:13;15.80;99.90
4548;DHT22;2286;51.570;7.090;2022-07-24T04:28:40;15.80;99.90
4548;DHT22;2286;51.570;7.090;2022-07-24T04:31:09;15.80;99.90
4548;DHT22;2286;51.570;7.090;2022-07-24T04:33:36;15.90;99.90
4548;DHT22;2286;51.570;7.090;2022-07-24T04:36:04;15.90;99.90
4548;DHT22;2286;51.570;7.090;2022-07-24T04:38:31;16.00;99.90
4548;DHT22;2286;51.570;7.090;2022-07-24T04:40:58;16.00;99.90
4548;DHT22;2286;51.570;7.090;2022-07-24T04:43:25;16.00;99.90
4548;DHT22;2286;51.570;7.090;2022-07-24T04:45:52;16.10;99.90
4548;DHT22;2286;51.570;7.090;2022-07-24T04:48:20;16.10;99.90
4548;DHT22;2286;51.570;7.090;2022-07-24T04:50:47;16.10;99.90
4548;DHT22;2286;51.570;7.090;2022-07-24T04:53:14;16.10;99.90
4548;DHT22;2286;51.570;7.090;2022-07-24T04:55:41;16.20;99.90
4548;DHT22;2286;51.570;7.090;2022-07-24T04:58:08;16.30;99.90
4548;DHT22;2286;51.570;7.090;2022-07-24T05:00:35;16.40;99.90
4548;DHT22;2286;51.570;7.090;2022-07-24T05:03:01;16.40;99.90
4548;DHT22;2286;51.570;7.090;2022-07-24T05:05:30;16.50;99.90
4548;DHT22;2286;51.570;7.090;2022-07-24T05:07:56;16.60;99.90
4548;DHT22;2286;51.570;7.090;2022-07-24T05:10:23;16.70;99.90
4548;DHT22;2286;51.570;7.090;2022-07-24T05:12:50;16.70;99.90
4548;DHT22;2286;51.570;7.090;2022-07-24T05:15:17;16.80;99.90
4548;DHT22;2286;51.570;7.090;2022-07-24T05:17:44;16.80;99.90
4548;DHT22;2286;51.570;7.090;2022-07-24T05:20:11;16.90;99.90
4548;DHT22;2286;51.570;7.090;2022-07-24T05:22:39;17.00;99.90
4548;DHT22;2286;51.570;7.090;2022-07-24T05:25:07;17.10;99.90
4548;DHT22;2286;51.570;7.090;2022-07-24T05:27:34;17.20;99.90
4548;DHT22;2286;51.570;7.090;2022-07-24T05:30:01;17.20;99.90
4548;DHT22;2286;51.570;7.090;2022-07-24T05:32:28;17.30;99.90
4548;DHT22;2286;51.570;7.090;2022-07-24T05:34:54;17.50;99.90
4548;DHT22;2286;51.570;7.090;2022-07-24T05:37:21;17.50;99.90
4548;DHT22;2286;51.570;7.090;2022-07-24T05:39:50;17.60;99.90
4548;DHT22;2286;51.570;7.090;2022-07-24T05:42:16;17.70;99.90
4548;DHT22;2286;51.570;7.090;2022-07-24T05:44:43;17.70;99.90
4548;DHT22;2286;51.570;7.090;2022-07-24T05:47:10;17.80;99.90
4548;DHT22;2286;51.570;7.090;2022-07-24T05:49:37;17.90;1.00
4548;DHT22;2286;51.570;7.090;2022-07-24T05:52:04;18.00;71.90
4548;DHT22;2286;51.570;7.090;2022-07-24T05:54:31;18.00;99.90
4548;DHT22;2286;51.570;7.090;2022-07-24T05:56:59;18.10;99.90
4548;DHT22;2286;51.570;7.090;2022-07-24T05:59:26;18.30;1.00
4548;DHT22;2286;51.570;7.090;2022-07-24T06:01:53;18.30;99.90
4548;DHT22;2286;51.570;7.090;2022-07-24T06:04:20;18.40;99.90
4548;DHT22;2286;51.570;7.090;2022-07-24T06:06:47;18.60;99.90
4548;DHT22;2286;51.570;7.090;2022-07-24T06:09:14;18.70;1.00
4548;DHT22;2286;51.570;7.090;2022-07-24T06:11:41;18.80;1.00
4548;DHT22;2286;51.570;7.090;2022-07-24T06:14:09;18.80;1.00
4548;DHT22;2286;51.570;7.090;2022-07-24T06:16:36;18.90;1.00
4548;DHT22;2286;51.570;7.090;2022-07-24T06:19:03;19.10;1.00
4548;DHT22;2286;51.570;7.090;2022-07-24T06:21:29;19.30;1.00
4548;DHT22;2286;51.570;7.090;2022-07-24T06:23:56;19.50;99.90
4548;DHT22;2286;51.570;7.090;2022-07-24T06:26:23;19.80;1.00
4548;DHT22;2286;51.570;7.090;2022-07-24T06:28:50;20.00;99.90
4548;DHT22;2286;51.570;7.090;2022-07-24T06:31:18;20.20;99.90
4548;DHT22;2286;51.570;7.090;2022-07-24T06:33:45;20.30;1.00
4548;DHT22;2286;51.570;7.090;2022-07-24T06:36:12;20.50;99.90
4548;DHT22;2286;51.570;7.090;2022-07-24T06:38:38;20.60;99.90
4548;DHT22;2286;51.570;7.090;2022-07-24T06:41:05;20.70;99.90
4548;DHT22;2286;51.570;7.090;2022-07-24T06:43:32;20.80;1.00
4548;DHT22;2286;51.570;7.090;2022-07-24T06:45:59;20.90;1.00
4548;DHT22;2286;51.570;7.090;2022-07-24T06:48:28;21.00;1.00
4548;DHT22;2286;51.570;7.090;2022-07-24T06:50:56;21.10;1.00
4548;DHT22;2286;51.570;7.090;2022-07-24T06:53:22;21.20;1.00
4548;DHT22;2286;51.570;7.090;2022-07-24T06:55:49;21.30;1.00
4548;DHT22;2286;51.570;7.090;2022-07-24T06:58:19;21.40;1.00
4548;DHT22;2286;51.570;7.090;2022-07-24T07:00:46;21.50;1.00
4548;DHT22;2286;51.570;7.090;2022-07-24T07:03:13;21.50;1.00
4548;DHT22;2286;51.570;7.090;2022-07-24T07:05:41;21.50;1.00
4548;DHT22;2286;51.570;7.090;2022-07-24T07:08:08;21.60;99.90
4548;DHT22;2286;51.570;7.090;2022-07-24T07:10:34;21.60;99.90
4548;DHT22;2286;51.570;7.090;2022-07-24T07:13:01;21.70;99.90
4548;DHT22;2286;51.570;7.090;2022-07-24T07:15:28;21.70;99.90
4548;DHT22;2286;51.570;7.090;2022-07-24T07:17:55;21.80;99.90
4548;DHT22;2286;51.570;7.090;2022-07-24T07:20:22;21.80;99.90
4548;DHT22;2286;51.570;7.090;2022-07-24T07:22:50;21.90;99.90
4548;DHT22;2286;51.570;7.090;2022-07-24T07:25:17;22.00;99.90
4548;DHT22;2286;51.570;7.090;2022-07-24T07:27:44;22.10;99.90
4548;DHT22;2286;51.570;7.090;2022-07-24T07:30:11;22.20;99.90
4548;DHT22;2286;51.570;7.090;2022-07-24T07:32:38;22.30;99.90
4548;DHT22;2286;51.570;7.090;2022-07-24T07:35:05;22.30;99.90
4548;DHT22;2286;51.570;7.090;2022-07-24T07:37:33;22.40;99.90
4548;DHT22;2286;51.570;7.090;2022-07-24T07:40:01;22.50;99.90
4548;DHT22;2286;51.570;7.090;2022-07-24T07:42:28;22.60;99.90
4548;DHT22;2286;51.570;7.090;2022-07-24T07:44:55;22.70;99.90
4548;DHT22;2286;51.570;7.090;2022-07-24T07:47:22;22.70;99.90
4548;DHT22;2286;51.570;7.090;2022-07-24T07:49:49;22.90;99.90
4548;DHT22;2286;51.570;7.090;2022-07-24T07:52:15;23.00;99.90
4548;DHT22;2286;51.570;7.090;2022-07-24T07:54:42;23.10;99.90
4548;DHT22;2286;51.570;7.090;2022-07-24T07:57:12;23.10;99.90
4548;DHT22;2286;51.570;7.090;2022-07-24T07:59:38;23.20;99.90
4548;DHT22;2286;51.570;7.090;2022-07-24T08:02:05;23.30;99.90
4548;DHT22;2286;51.570;7.090;2022-07-24T08:04:32;23.50;99.90
4548;DHT22;2286;51.570;7.090;2022-07-24T08:07:00;23.60;99.90
4548;DHT22;2286;51.570;7.090;2022-07-24T08:09:27;23.70;99.90
4548;DHT22;2286;51.570;7.090;2022-07-24T08:11:54;23.70;99.90
4548;DHT22;2286;51.570;7.090;2022-07-24T08:14:22;23.80;99.90
4548;DHT22;2286;51.570;7.090;2022-07-24T08:16:49;23.70;99.90
4548;DHT22;2286;51.570;7.090;2022-07-24T08:19:16;23.80;99.90
4548;DHT22;2286;51.570;7.090;2022-07-24T08:21:43;23.90;99.90
4548;DHT22;2286;51.570;7.090;2022-07-24T08:24:11;23.90;99.90
4548;DHT22;2286;51.570;7.090;2022-07-24T08:26:38;23.90;99.90
4548;DHT22;2286;51.570;7.090;2022-07-24T08:29:04;23.90;99.90
4548;DHT22;2286;51.570;7.090;2022-07-24T08:31:33;23.90;99.90
4548;DHT22;2286;51.570;7.090;2022-07-24T08:34:00;24.00;99.90
4548;DHT22;2286;51.570;7.090;2022-07-24T08:36:27;24.10;99.90
4548;DHT22;2286;51.570;7.090;2022-07-24T08:38:54;24.20;99.90
4548;DHT22;2286;51.570;7.090;2022-07-24T08:41:21;24.20;99.90
4548;DHT22;2286;51.570;7.090;2022-07-24T08:43:48;24.30;99.90
4548;DHT22;2286;51.570;7.090;2022-07-24T08:46:15;24.20;99.90
4548;DHT22;2286;51.570;7.090;2022-07-24T08:48:45;24.30;99.90
4548;DHT22;2286;51.570;7.090;2022-07-24T08:51:13;24.40;99.90
4548;DHT22;2286;51.570;7.090;2022-07-24T08:53:40;24.50;99.90
4548;DHT22;2286;51.570;7.090;2022-07-24T08:56:07;24.50;99.90
4548;DHT22;2286;51.570;7.090;2022-07-24T08:58:37;24.60;99.90
4548;DHT22;2286;51.570;7.090;2022-07-24T09:01:04;24.60;99.90
4548;DHT22;2286;51.570;7.090;2022-07-24T09:03:39;24.70;99.90
4548;DHT22;2286;51.570;7.090;2022-07-24T09:06:08;24.70;99.90
4548;DHT22;2286;51.570;7.090;2022-07-24T09:08:36;24.80;99.90
4548;DHT22;2286;51.570;7.090;2022-07-24T09:11:04;24.90;99.90
4548;DHT22;2286;51.570;7.090;2022-07-24T09:13:33;25.00;99.90
4548;DHT22;2286;51.570;7.090;2022-07-24T09:16:17;25.10;99.90
4548;DHT22;2286;51.570;7.090;2022-07-24T09:18:48;25.30;99.90
4548;DHT22;2286;51.570;7.090;2022-07-24T09:21:17;25.30;99.90
4548;DHT22;2286;51.570;7.090;2022-07-24T09:23:45;25.40;99.90
4548;DHT22;2286;51.570;7.090;2022-07-24T09:26:14;25.50;99.90
4548;DHT22;2286;51.570;7.090;2022-07-24T09:28:48;25.60;99.90
4548;DHT22;2286;51.570;7.090;2022-07-24T09:31:19;25.70;99.90
4548;DHT22;2286;51.570;7.090;2022-07-24T09:33:48;25.90;99.90
4548;DHT22;2286;51.570;7.090;2022-07-24T09:36:18;25.90;99.90
4548;DHT22;2286;51.570;7.090;2022-07-24T09:38:47;25.90;99.90
4548;DHT22;2286;51.570;7.090;2022-07-24T09:41:19;25.90;99.90
4548;DHT22;2286;51.570;7.090;2022-07-24T09:43:57;25.90;99.90
4548;DHT22;2286;51.570;7.090;2022-07-24T09:46:25;25.90;99.90
4548;DHT22;2286;51.570;7.090;2022-07-24T09:48:54;26.00;99.90
4548;DHT22;2286;51.570;7.090;2022-07-24T09:51:24;26.00;99.90
4548;DHT22;2286;51.570;7.090;2022-07-24T09:53:54;26.20;99.90
4548;DHT22;2286;51.570;7.090;2022-07-24T09:56:22;26.50;99.90
4548;DHT22;2286;51.570;7.090;2022-07-24T09:58:50;26.70;99.90
4548;DHT22;2286;51.570;7.090;2022-07-24T10:01:20;26.80;99.90
4548;DHT22;2286;51.570;7.090;2022-07-24T10:03:49;26.80;99.90
4548;DHT22;2286;51.570;7.090;2022-07-24T10:06:19;26.60;99.40
4548;DHT22;2286;51.570;7.090;2022-07-24T10:08:49;26.90;99.90
4548;DHT22;2286;51.570;7.090;2022-07-24T10:11:17;27.00;99.40
4548;DHT22;2286;51.570;7.090;2022-07-24T10:13:44;27.10;99.10
4548;DHT22;2286;51.570;7.090;2022-07-24T10:16:35;27.40;99.10
4548;DHT22;2286;51.570;7.090;2022-07-24T10:19:05;27.80;99.70
4548;DHT22;2286;51.570;7.090;2022-07-24T10:21:33;28.00;99.40
4548;DHT22;2286;51.570;7.090;2022-07-24T10:27:21;28.40;98.50
4548;DHT22;2286;51.570;7.090;2022-07-24T10:29:48;28.60;98.20
4548;DHT22;2286;51.570;7.090;2022-07-24T10:32:17;28.80;98.30
4548;DHT22;2286;51.570;7.090;2022-07-24T10:34:47;29.30;99.10
4548;DHT22;2286;51.570;7.090;2022-07-24T10:37:21;29.70;99.70
4548;DHT22;2286;51.570;7.090;2022-07-24T10:39:58;30.00;99.00
4548;DHT22;2286;51.570;7.090;2022-07-24T10:42:28;30.70;99.90
4548;DHT22;2286;51.570;7.090;2022-07-24T10:45:15;31.40;99.90
4548;DHT22;2286;51.570;7.090;2022-07-24T10:47:43;32.70;99.90
4548;DHT22;2286;51.570;7.090;2022-07-24T10:50:10;33.00;99.90
4548;DHT22;2286;51.570;7.090;2022-07-24T10:52:37;33.10;99.90
4548;DHT22;2286;51.570;7.090;2022-07-24T10:55:33;32.70;99.90
4548;DHT22;2286;51.570;7.090;2022-07-24T10:58:03;30.70;94.10
4548;DHT22;2286;51.570;7.090;2022-07-24T11:00:32;30.70;94.60
4548;DHT22;2286;51.570;7.090;2022-07-24T11:03:01;31.10;95.70
4548;DHT22;2286;51.570;7.090;2022-07-24T11:05:31;31.70;96.20
4548;DHT22;2286;51.570;7.090;2022-07-24T11:08:26;32.20;97.20
4548;DHT22;2286;51.570;7.090;2022-07-24T11:10:58;32.10;97.10
4548;DHT22;2286;51.570;7.090;2022-07-24T11:13:49;33.10;99.20
4548;DHT22;2286;51.570;7.090;2022-07-24T11:16:24;33.50;99.70
4548;DHT22;2286;51.570;7.090;2022-07-24T11:19:26;34.00;99.60
4548;DHT22;2286;51.570;7.090;2022-07-24T11:22:08;33.20;96.70
4548;DHT22;2286;51.570;7.090;2022-07-24T11:24:35;33.40;96.30
4548;DHT22;2286;51.570;7.090;2022-07-24T11:27:05;34.00;99.90
4548;DHT22;2286;51.570;7.090;2022-07-24T11:29:34;33.70;96.00
4548;DHT22;2286;51.570;7.090;2022-07-24T11:32:03;33.90;97.00
4548;DHT22;2286;51.570;7.090;2022-07-24T11:34:31;35.20;98.90
4548;DHT22;2286;51.570;7.090;2022-07-24T11:36:59;35.90;99.80
4548;DHT22;2286;51.570;7.090;2022-07-24T11:39:29;36.70;99.90
4548;DHT22;2286;51.570;7.090;2022-07-24T11:41:58;36.80;99.90
4548;DHT22;2286;51.570;7.090;2022-07-24T11:44:27;37.00;99.90
4548;DHT22;2286;51.570;7.090;2022-07-24T11:46:55;38.30;99.90
4548;DHT22;2286;51.570;7.090;2022-07-24T11:49:24;38.80;99.90
4548;DHT22;2286;51.570;7.090;2022-07-24T11:51:53;38.60;99.90
4548;DHT22;2286;51.570;7.090;2022-07-24T11:54:24;38.60;99.90
4548;DHT22;2286;51.570;7.090;2022-07-24T11:56:53;37.50;97.10
4548;DHT22;2286;51.570;7.090;2022-07-24T11:59:24;37.50;97.10
4548;DHT22;2286;51.570;7.090;2022-07-24T12:01:55;37.40;95.80
4548;DHT22;2286;51.570;7.090;2022-07-24T12:04:23;37.80;96.80
4548;DHT22;2286;51.570;7.090;2022-07-24T12:06:50;38.60;98.40
4548;DHT22;2286;51.570;7.090;2022-07-24T12:09:17;39.60;99.90
4548;DHT22;2286;51.570;7.090;2022-07-24T12:11:44;40.40;99.90
4548;DHT22;2286;51.570;7.090;2022-07-24T12:14:16;40.10;99.90
4548;DHT22;2286;51.570;7.090;2022-07-24T12:16:50;39.40;97.30
4548;DHT22;2286;51.570;7.090;2022-07-24T12:19:19;38.70;94.50
4548;DHT22;2286;51.570;7.090;2022-07-24T12:21:48;38.30;93.40
4548;DHT22;2286;51.570;7.090;2022-07-24T12:24:16;38.20;92.60
4548;DHT22;2286;51.570;7.090;2022-07-24T12:26:50;38.50;93.90
4548;DHT22;2286;51.570;7.090;2022-07-24T12:29:19;38.30;91.60
4548;DHT22;2286;51.570;7.090;2022-07-24T12:31:46;38.70;94.30
4548;DHT22;2286;51.570;7.090;2022-07-24T12:34:14;39.00;93.90
4548;DHT22;2286;51.570;7.090;2022-07-24T12:36:41;39.00;93.60
4548;DHT22;2286;51.570;7.090;2022-07-24T12:39:11;39.30;94.90
4548;DHT22;2286;51.570;7.090;2022-07-24T12:41:43;40.00;96.00
4548;DHT22;2286;51.570;7.090;2022-07-24T12:44:11;40.20;95.40
4548;DHT22;2286;51.570;7.090;2022-07-24T12:46:40;40.20;95.40
4548;DHT22;2286;51.570;7.090;2022-07-24T12:49:08;40.90;96.90
4548;DHT22;2286;51.570;7.090;2022-07-24T12:51:49;41.60;98.40
4548;DHT22;2286;51.570;7.090;2022-07-24T12:54:18;41.20;96.60
4548;DHT22;2286;51.570;7.090;2022-07-24T12:56:46;41.30;96.40
4548;DHT22;2286;51.570;7.090;2022-07-24T12:59:27;40.80;95.10
4548;DHT22;2286;51.570;7.090;2022-07-24T13:01:57;41.40;96.70
4548;DHT22;2286;51.570;7.090;2022-07-24T13:04:26;41.60;96.80
4548;DHT22;2286;51.570;7.090;2022-07-24T13:06:54;42.10;97.00
4548;DHT22;2286;51.570;7.090;2022-07-24T13:09:22;42.20;97.40
4548;DHT22;2286;51.570;7.090;2022-07-24T13:11:50;43.10;99.20
4548;DHT22;2286;51.570;7.090;2022-07-24T13:14:19;42.00;95.20
4548;DHT22;2286;51.570;7.090;2022-07-24T13:16:47;42.50;96.80
4548;DHT22;2286;51.570;7.090;2022-07-24T13:19:17;43.20;97.70
4548;DHT22;2286;51.570;7.090;2022-07-24T13:21:44;42.90;96.10
4548;DHT22;2286;51.570;7.090;2022-07-24T13:24:14;43.50;97.80
4548;DHT22;2286;51.570;7.090;2022-07-24T13:26:43;44.10;98.60
4548;DHT22;2286;51.570;7.090;2022-07-24T13:29:10;43.10;94.40
4548;DHT22;2286;51.570;7.090;2022-07-24T13:31:38;42.70;93.50
4548;DHT22;2286;51.570;7.090;2022-07-24T13:34:05;43.10;94.90
4548;DHT22;2286;51.570;7.090;2022-07-24T13:36:34;44.20;97.50
4548;DHT22;2286;51.570;7.090;2022-07-24T13:39:01;44.00;96.30
4548;DHT22;2286;51.570;7.090;2022-07-24T13:41:29;43.00;93.00
4548;DHT22;2286;51.570;7.090;2022-07-24T13:43:56;42.70;91.80
4548;DHT22;2286;51.570;7.090;2022-07-24T13:46:23;43.40;94.40
4548;DHT22;2286;51.570;7.090;2022-07-24T13:48:50;41.50;85.20
4548;DHT22;2286;51.570;7.090;2022-07-24T13:51:18;41.90;88.20
4548;DHT22;2286;51.570;7.090;2022-07-24T13:53:46;42.30;91.50
4548;DHT22;2286;51.570;7.090;2022-07-24T13:56:13;43.30;93.80
4548;DHT22;2286;51.570;7.090;2022-07-24T13:58:40;43.90;93.90
4548;DHT22;2286;51.570;7.090;2022-07-24T14:01:09;43.90;93.90
4548;DHT22;2286;51.570;7.090;2022-07-24T14:03:38;44.50;95.00
4548;DHT22;2286;51.570;7.090;2022-07-24T14:06:07;45.10;96.10
4548;DHT22;2286;51.570;7.090;2022-07-24T14:08:35;45.40;96.50
4548;DHT22;2286;51.570;7.090;2022-07-24T14:11:03;45.80;97.10
4548;DHT22;2286;51.570;7.090;2022-07-24T14:13:30;45.60;95.50
4548;DHT22;2286;51.570;7.090;2022-07-24T14:15:57;45.70;96.30
4548;DHT22;2286;51.570;7.090;2022-07-24T14:18:24;46.20;96.90
4548;DHT22;2286;51.570;7.090;2022-07-24T14:20:51;46.60;97.40
4548;DHT22;2286;51.570;7.090;2022-07-24T14:23:18;46.30;95.70
4548;DHT22;2286;51.570;7.090;2022-07-24T14:25:45;44.90;91.70
4548;DHT22;2286;51.570;7.090;2022-07-24T14:28:13;43.60;86.00
4548;DHT22;2286;51.570;7.090;2022-07-24T14:30:40;43.50;86.60
4548;DHT22;2286;51.570;7.090;2022-07-24T14:33:07;42.40;77.80
4548;DHT22;2286;51.570;7.090;2022-07-24T14:35:34;41.70;75.30
4548;DHT22;2286;51.570;7.090;2022-07-24T14:38:01;41.30;71.60
4548;DHT22;2286;51.570;7.090;2022-07-24T14:40:29;40.80;69.80
4548;DHT22;2286;51.570;7.090;2022-07-24T14:42:56;42.20;79.40
4548;DHT22;2286;51.570;7.090;2022-07-24T14:45:24;43.70;87.00
4548;DHT22;2286;51.570;7.090;2022-07-24T14:47:51;43.90;86.00
4548;DHT22;2286;51.570;7.090;2022-07-24T14:50:18;44.00;88.20
4548;DHT22;2286;51.570;7.090;2022-07-24T14:52:45;45.40;92.40
4548;DHT22;2286;51.570;7.090;2022-07-24T14:55:12;45.20;90.40
4548;DHT22;2286;51.570;7.090;2022-07-24T14:57:39;45.40;91.90
4548;DHT22;2286;51.570;7.090;2022-07-24T15:00:07;45.80;92.00
4548;DHT22;2286;51.570;7.090;2022-07-24T15:02:36;46.20;93.60
4548;DHT22;2286;51.570;7.090;2022-07-24T15:05:03;47.00;95.20
4548;DHT22;2286;51.570;7.090;2022-07-24T15:07:30;47.60;96.10
4548;DHT22;2286;51.570;7.090;2022-07-24T15:09:57;46.40;91.10
4548;DHT22;2286;51.570;7.090;2022-07-24T15:12:24;44.50;83.20
4548;DHT22;2286;51.570;7.090;2022-07-24T15:14:51;44.00;78.50
4548;DHT22;2286;51.570;7.090;2022-07-24T15:17:18;43.80;78.00
4548;DHT22;2286;51.570;7.090;2022-07-24T15:19:46;44.00;80.20
4548;DHT22;2286;51.570;7.090;2022-07-24T15:22:13;44.40;84.50
4548;DHT22;2286;51.570;7.090;2022-07-24T15:24:40;45.10;87.70
4548;DHT22;2286;51.570;7.090;2022-07-24T15:27:07;46.50;91.70
4548;DHT22;2286;51.570;7.090;2022-07-24T15:29:34;46.80;92.30
4548;DHT22;2286;51.570;7.090;2022-07-24T15:32:00;46.80;91.40
4548;DHT22;2286;51.570;7.090;2022-07-24T15:34:27;46.50;90.60
4548;DHT22;2286;51.570;7.090;2022-07-24T15:36:55;45.10;83.20
4548;DHT22;2286;51.570;7.090;2022-07-24T15:39:22;45.60;87.40
4548;DHT22;2286;51.570;7.090;2022-07-24T15:41:49;46.60;90.60
4548;DHT22;2286;51.570;7.090;2022-07-24T15:44:16;46.80;90.30
4548;DHT22;2286;51.570;7.090;2022-07-24T15:46:43;46.80;90.90
4548;DHT22;2286;51.570;7.090;2022-07-24T15:49:10;47.50;99.90
4548;DHT22;2286;51.570;7.090;2022-07-24T15:51:37;46.80;89.00
4548;DHT22;2286;51.570;7.090;2022-07-24T15:54:05;46.00;85.30
4548;DHT22;2286;51.570;7.090;2022-07-24T15:56:32;45.60;80.90
4548;DHT22;2286;51.570;7.090;2022-07-24T15:58:59;43.80;72.70
4548;DHT22;2286;51.570;7.090;2022-07-24T16:01:26;44.70;79.70
4548;DHT22;2286;51.570;7.090;2022-07-24T16:03:53;43.80;74.20
4548;DHT22;2286;51.570;7.090;2022-07-24T16:06:19;45.10;82.80
4548;DHT22;2286;51.570;7.090;2022-07-24T16:08:46;45.60;83.30
4548;DHT22;2286;51.570;7.090;2022-07-24T16:11:14;45.30;81.10